createdAt,value
2022-11-03T00:02:13.058Z,7.61
2022-11-03T00:04:40.319Z,7.59
2022-11-03T00:07:07.612Z,7.46
2022-11-03T00:09:34.790Z,7.49
2022-11-03T00:12:02.175Z,7.39
2022-11-03T00:14:29.323Z,7.28
2022-11-03T00:16:56.497Z,7.33
2022-11-03T00:19:23.593Z,7.42
2022-11-03T00:21:50.746Z,7.36
2022-11-03T00:24:17.861Z,7.47
2022-11-03T00:26:45.019Z,7.48
2022-11-03T00:29:13.947Z,7.65
2022-11-03T00:31:43.504Z,7.69
2022-11-03T00:34:10.805Z,7.74
2022-11-03T00:36:43.653Z,7.74
2022-11-03T00:39:11.367Z,7.69
2022-11-03T00:41:39.792Z,7.61
2022-11-03T00:44:07.332Z,7.58
2022-11-03T00:46:35.559Z,7.56
2022-11-03T00:49:04.632Z,7.60
2022-11-03T00:51:34.298Z,7.56
2022-11-03T00:54:03.603Z,7.63
2022-11-03T00:56:35.883Z,7.60
2022-11-03T00:59:05.272Z,7.56
2022-11-03T01:01:46.012Z,7.48
2022-11-03T01:04:35.323Z,7.43
2022-11-03T01:07:03.312Z,7.47
2022-11-03T01:09:38.877Z,7.61
2022-11-03T01:12:08.674Z,7.72
2022-11-03T01:14:37.323Z,7.75
2022-11-03T01:17:06.687Z,7.69
2022-11-03T01:19:33.970Z,7.53
2022-11-03T01:22:01.194Z,7.70
2022-11-03T01:24:28.419Z,7.60
2022-11-03T01:26:55.592Z,7.61
2022-11-03T01:29:22.877Z,7.60
2022-11-03T01:31:50.129Z,7.65
2022-11-03T01:34:19.214Z,7.48
2022-11-03T01:36:47.292Z,7.52
2022-11-03T01:39:16.780Z,7.56
2022-11-03T01:41:46.272Z,7.54
2022-11-03T01:44:13.342Z,7.57
2022-11-03T01:46:51.655Z,7.58
2022-11-03T01:49:54.319Z,7.73
2022-11-03T01:52:30.852Z,7.81
2022-11-03T01:55:12.982Z,7.96
2022-11-03T01:58:19.427Z,8.09
2022-11-03T02:00:50.862Z,8.12
2022-11-03T02:03:19.287Z,8.05
2022-11-03T02:05:48.803Z,7.94
2022-11-03T02:08:15.778Z,7.85
2022-11-03T02:10:43.211Z,7.79
2022-11-03T02:13:19.992Z,7.79
2022-11-03T02:15:50.437Z,7.63
2022-11-03T02:18:19.836Z,7.75
2022-11-03T02:20:54.755Z,7.79
2022-11-03T02:23:51.416Z,7.87
2022-11-03T02:26:18.826Z,7.79
2022-11-03T02:28:45.936Z,7.49
2022-11-03T02:31:19.705Z,7.55
2022-11-03T02:33:55.914Z,7.45
2022-11-03T02:36:31.995Z,7.43
2022-11-03T02:39:05.367Z,7.42
2022-11-03T02:41:36.467Z,7.53
2022-11-03T02:44:07.814Z,7.52
2022-11-03T02:46:36.538Z,7.62
2022-11-03T02:49:03.590Z,7.59
2022-11-03T02:51:30.662Z,7.71
2022-11-03T02:54:00.671Z,7.64
2022-11-03T02:56:31.112Z,7.86
2022-11-03T02:59:02.110Z,8.06
2022-11-03T03:01:47.650Z,8.06
2022-11-03T03:04:32.893Z,8.19
2022-11-03T03:07:13.679Z,8.07
2022-11-03T03:09:46.723Z,7.93
2022-11-03T03:12:18.312Z,7.80
2022-11-03T03:14:46.932Z,7.65
2022-11-03T03:17:31.299Z,7.45
2022-11-03T03:20:16.305Z,7.49
2022-11-03T03:22:56.551Z,7.71
2022-11-03T03:25:34.508Z,7.73
2022-11-03T03:28:11.500Z,7.78
2022-11-03T03:30:41.798Z,7.68
2022-11-03T03:33:10.364Z,7.51
2022-11-03T03:35:41.975Z,7.42
2022-11-03T03:38:15.715Z,7.43
2022-11-03T03:40:46.747Z,7.44
2022-11-03T03:43:14.898Z,7.58
2022-11-03T03:45:44.484Z,7.83
2022-11-03T03:48:13.076Z,7.92
2022-11-03T03:50:43.387Z,8.09
2022-11-03T03:53:13.006Z,8.19
2022-11-03T03:55:43.683Z,8.28
2022-11-03T03:58:13.447Z,8.25
2022-11-03T04:00:41.644Z,8.26
2022-11-03T04:03:21.486Z,8.15
2022-11-03T04:05:48.839Z,7.96
2022-11-03T04:08:17.117Z,7.97
2022-11-03T04:11:14.424Z,7.90
2022-11-03T04:13:59.713Z,7.81
2022-11-03T04:16:45.242Z,7.74
2022-11-03T04:19:30.661Z,7.75
2022-11-03T04:22:16.116Z,8.00
2022-11-03T04:24:51.735Z,8.16
2022-11-03T04:27:18.755Z,8.29
2022-11-03T04:29:45.897Z,8.24
2022-11-03T04:32:17.707Z,8.25
2022-11-03T04:34:47.240Z,8.36
2022-11-03T04:37:14.876Z,8.30
2022-11-03T04:39:41.975Z,8.30
2022-11-03T04:42:22.183Z,8.28
2022-11-03T04:44:49.889Z,8.26
2022-11-03T04:47:18.163Z,8.16
2022-11-03T04:49:48.064Z,8.18
2022-11-03T04:52:21.121Z,8.15
2022-11-03T04:54:52.301Z,8.08
2022-11-03T04:57:19.437Z,8.09
2022-11-03T04:59:49.887Z,8.13
2022-11-03T05:02:20.845Z,8.00
2022-11-03T05:04:48.069Z,7.97
2022-11-03T05:07:28.869Z,8.05
2022-11-03T05:09:55.970Z,7.96
2022-11-03T05:12:23.213Z,7.89
2022-11-03T05:14:55.455Z,8.04
2022-11-03T05:17:28.593Z,8.01
2022-11-03T05:19:59.969Z,8.01
2022-11-03T05:22:31.355Z,8.02
2022-11-03T05:25:03.551Z,8.08
2022-11-03T05:27:30.654Z,8.03
2022-11-03T05:30:00.962Z,7.98
2022-11-03T05:32:32.974Z,8.16
2022-11-03T05:35:00.359Z,8.18
2022-11-03T05:37:35.222Z,8.20
2022-11-03T05:40:14.725Z,8.40
2022-11-03T05:42:42.732Z,8.42
2022-11-03T05:45:22.492Z,8.42
2022-11-03T05:47:53.269Z,8.47
2022-11-03T05:50:26.051Z,8.49
2022-11-03T05:53:22.583Z,8.58
2022-11-03T05:55:49.543Z,8.63
2022-11-03T05:58:27.572Z,8.62
2022-11-03T06:00:54.763Z,8.73
2022-11-03T06:03:25.176Z,8.74
2022-11-03T06:05:53.067Z,8.77
2022-11-03T06:10:58.352Z,8.74
2022-11-03T06:13:37.388Z,8.70
2022-11-03T06:16:14.071Z,8.68
2022-11-03T06:18:41.134Z,8.77
2022-11-03T06:21:16.372Z,8.73
2022-11-03T06:23:43.473Z,8.72
2022-11-03T06:26:20.584Z,8.68
2022-11-03T06:28:49.142Z,8.67
2022-11-03T06:31:31.132Z,8.70
2022-11-03T06:33:58.831Z,8.64
2022-11-03T06:36:35.217Z,8.67
2022-11-03T06:39:08.727Z,8.64
2022-11-03T06:41:36.896Z,8.63
2022-11-03T06:44:25.873Z,8.68
2022-11-03T06:46:59.680Z,8.72
2022-11-03T06:49:32.985Z,8.72
2022-11-03T06:52:14.981Z,8.77
2022-11-03T06:54:42.127Z,8.67
2022-11-03T06:57:15.575Z,8.70
2022-11-03T06:59:42.730Z,8.72
2022-11-03T07:02:47.218Z,8.73
2022-11-03T07:05:26.287Z,8.76
2022-11-03T07:07:58.833Z,8.79
2022-11-03T07:10:32.177Z,8.74
2022-11-03T07:13:13.425Z,8.91
2022-11-03T07:15:43.171Z,8.91
2022-11-03T07:18:33.200Z,8.98
2022-11-03T07:21:05.157Z,8.99
2022-11-03T07:23:32.262Z,9.00
2022-11-03T07:26:01.220Z,9.02
2022-11-03T07:28:36.362Z,8.96
2022-11-03T07:31:16.565Z,9.03
2022-11-03T07:33:43.939Z,9.02
2022-11-03T07:36:16.842Z,9.02
2022-11-03T07:38:47.845Z,9.08
2022-11-03T07:41:20.927Z,9.02
2022-11-03T07:43:59.063Z,9.18
2022-11-03T07:46:26.992Z,9.30
2022-11-03T07:49:02.746Z,9.36
2022-11-03T07:51:48.045Z,9.40
2022-11-03T07:54:20.843Z,9.53
2022-11-03T07:56:52.894Z,9.62
2022-11-03T07:59:30.866Z,9.57
2022-11-03T08:01:58.867Z,9.57
2022-11-03T08:04:29.304Z,9.51
2022-11-03T08:06:56.876Z,9.48
2022-11-03T08:09:25.232Z,9.38
2022-11-03T08:11:52.927Z,9.53
2022-11-03T08:14:20.134Z,9.58
2022-11-03T08:16:47.283Z,9.66
2022-11-03T08:19:14.345Z,9.72
2022-11-03T08:21:41.436Z,9.69
2022-11-03T08:24:08.489Z,9.77
2022-11-03T08:26:35.589Z,9.76
2022-11-03T08:29:02.686Z,9.79
2022-11-03T08:31:29.774Z,9.83
2022-11-03T08:33:56.887Z,9.92
2022-11-03T08:36:23.998Z,9.92
2022-11-03T08:38:51.046Z,10.02
2022-11-03T08:41:18.127Z,10.03
2022-11-03T08:43:45.161Z,10.06
2022-11-03T08:46:17.806Z,10.13
2022-11-03T08:48:46.473Z,10.13
2022-11-03T08:51:14.915Z,10.20
2022-11-03T08:53:42.869Z,10.33
2022-11-03T08:56:13.000Z,10.26
2022-11-03T08:58:44.023Z,10.42
2022-11-03T09:01:11.331Z,10.34
2022-11-03T09:03:38.994Z,10.41
2022-11-03T09:06:06.712Z,10.40
2022-11-03T09:11:20.900Z,10.47
2022-11-03T09:13:47.936Z,10.50
2022-11-03T09:16:14.991Z,10.51
2022-11-03T09:18:42.094Z,10.60
2022-11-03T09:21:09.204Z,10.57
2022-11-03T09:23:36.298Z,10.36
2022-11-03T09:26:03.404Z,10.61
2022-11-03T09:28:30.471Z,10.56
2022-11-03T09:30:57.538Z,10.55
2022-11-03T09:33:24.778Z,10.58
2022-11-03T09:35:51.874Z,10.57
2022-11-03T09:38:19.034Z,10.62
2022-11-03T09:40:46.380Z,10.59
2022-11-03T09:43:13.491Z,10.45
2022-11-03T09:45:40.625Z,10.41
2022-11-03T09:48:12.682Z,10.50
2022-11-03T09:50:40.045Z,10.37
2022-11-03T09:53:11.087Z,10.44
2022-11-03T09:55:39.713Z,10.56
2022-11-03T09:58:15.270Z,10.42
2022-11-03T10:00:42.507Z,10.54
2022-11-03T10:03:14.462Z,10.42
2022-11-03T10:05:43.744Z,10.51
2022-11-03T10:08:29.623Z,10.74
2022-11-03T10:10:57.543Z,10.75
2022-11-03T10:13:29.878Z,10.70
2022-11-03T10:15:59.845Z,10.67
2022-11-03T10:18:27.838Z,10.74
2022-11-03T10:20:55.312Z,10.64
2022-11-03T10:23:22.392Z,10.73
2022-11-03T10:25:49.474Z,10.72
2022-11-03T10:28:22.401Z,10.79
2022-11-03T10:31:16.533Z,10.83
2022-11-03T10:33:56.163Z,10.65
2022-11-03T10:36:24.898Z,10.60
2022-11-03T10:38:52.727Z,10.47
2022-11-03T10:41:25.681Z,10.58
2022-11-03T10:44:10.724Z,10.63
2022-11-03T10:46:54.998Z,10.50
2022-11-03T10:49:22.492Z,10.37
2022-11-03T10:51:52.588Z,10.35
2022-11-03T10:54:22.933Z,10.48
2022-11-03T10:56:51.937Z,10.44
2022-11-03T10:59:24.203Z,10.50
2022-11-03T11:01:51.709Z,10.56
2022-11-03T11:04:20.583Z,10.50
2022-11-03T11:06:48.006Z,10.47
2022-11-03T11:09:26.527Z,10.41
2022-11-03T11:12:06.018Z,10.31
2022-11-03T11:14:36.998Z,10.30
2022-11-03T11:17:04.679Z,10.32
2022-11-03T11:20:11.926Z,10.70
2022-11-03T11:22:39.119Z,10.44
2022-11-03T11:25:06.529Z,10.86
2022-11-03T11:27:36.499Z,10.81
2022-11-03T11:30:07.207Z,10.71
2022-11-03T11:32:40.080Z,10.80
2022-11-03T11:35:15.820Z,11.15
2022-11-03T11:37:43.573Z,11.08
2022-11-03T11:40:19.870Z,11.09
2022-11-03T11:43:02.266Z,11.34
2022-11-03T11:46:06.840Z,11.43
2022-11-03T11:48:34.612Z,11.47
2022-11-03T11:51:03.769Z,11.45
2022-11-03T11:53:39.788Z,11.60
2022-11-03T11:56:11.531Z,11.46
2022-11-03T11:58:42.383Z,11.50
2022-11-03T12:01:35.410Z,11.57
2022-11-03T12:04:15.478Z,11.49
2022-11-03T12:09:20.902Z,11.60
2022-11-03T12:11:52.529Z,11.46
2022-11-03T12:14:29.051Z,11.30
2022-11-03T12:16:57.448Z,11.33
2022-11-03T12:19:38.563Z,11.22
2022-11-03T12:22:08.267Z,11.13
2022-11-03T12:24:48.178Z,11.12
2022-11-03T12:27:42.275Z,11.01
2022-11-03T12:30:15.912Z,11.15
2022-11-03T12:32:43.195Z,11.34
2022-11-03T12:35:13.433Z,11.47
2022-11-03T12:37:41.806Z,11.57
2022-11-03T12:40:09.680Z,11.55
2022-11-03T12:42:36.742Z,11.98
2022-11-03T12:45:04.158Z,11.81
2022-11-03T12:47:31.239Z,11.63
2022-11-03T12:49:58.320Z,11.56
2022-11-03T12:52:25.592Z,11.73
2022-11-03T12:54:52.904Z,12.15
2022-11-03T12:57:19.960Z,12.22
2022-11-03T12:59:47.011Z,12.33
2022-11-03T13:02:14.279Z,12.18
2022-11-03T13:04:41.483Z,12.25
2022-11-03T13:07:08.539Z,12.29
2022-11-03T13:09:36.054Z,12.27
2022-11-03T13:12:22.245Z,12.52
2022-11-03T13:14:49.363Z,12.60
2022-11-03T13:17:16.463Z,12.08
2022-11-03T13:19:43.560Z,12.36
2022-11-03T13:22:10.677Z,12.12
2022-11-03T13:24:38.082Z,11.95
2022-11-03T13:27:05.132Z,11.77
2022-11-03T13:29:35.321Z,11.51
2022-11-03T13:32:06.436Z,11.52
2022-11-03T13:34:33.870Z,11.25
2022-11-03T13:37:00.924Z,11.11
2022-11-03T13:39:28.102Z,10.88
2022-11-03T13:41:55.180Z,10.97
2022-11-03T13:44:22.237Z,10.80
2022-11-03T13:46:49.355Z,10.85
2022-11-03T13:49:59.380Z,10.73
2022-11-03T13:52:03.914Z,10.67
2022-11-03T14:00:06.877Z,10.40
2022-11-03T14:05:27.527Z,10.35
2022-11-03T14:07:54.634Z,10.40
2022-11-03T14:10:22.788Z,10.34
2022-11-03T14:12:49.860Z,10.24
2022-11-03T14:15:16.994Z,10.45
2022-11-03T14:17:44.160Z,10.12
2022-11-03T14:20:12.318Z,10.20
2022-11-03T14:22:40.428Z,10.08
2022-11-03T14:25:08.355Z,10.08
2022-11-03T14:27:35.536Z,10.16
2022-11-03T14:30:04.218Z,10.10
2022-11-03T14:32:31.300Z,9.88
2022-11-03T14:34:58.474Z,9.91
2022-11-03T14:37:25.912Z,10.06
2022-11-03T14:39:52.994Z,9.94
2022-11-03T14:42:20.109Z,9.91
2022-11-03T14:44:47.877Z,9.97
2022-11-03T14:47:18.253Z,9.98
2022-11-03T14:49:46.359Z,9.97
2022-11-03T14:52:14.491Z,9.96
2022-11-03T14:54:42.178Z,10.01
2022-11-03T14:57:09.771Z,9.93
2022-11-03T14:59:37.311Z,9.85
2022-11-03T15:02:05.799Z,9.75
2022-11-03T15:04:33.391Z,9.93
2022-11-03T15:07:00.512Z,9.84
2022-11-03T15:09:27.651Z,9.76
2022-11-03T15:11:54.763Z,9.94
2022-11-03T15:14:21.926Z,10.06
2022-11-03T15:16:49.040Z,9.94
2022-11-03T15:19:16.216Z,9.87
2022-11-03T15:21:43.303Z,9.95
2022-11-03T15:26:57.402Z,9.90
2022-11-03T15:29:24.491Z,9.99
2022-11-03T15:31:51.729Z,10.03
2022-11-03T15:34:18.793Z,10.02
2022-11-03T15:36:45.919Z,10.17
2022-11-03T15:39:13.313Z,9.81
2022-11-03T15:41:40.678Z,9.78
2022-11-03T15:44:07.723Z,9.91
2022-11-03T15:46:35.784Z,9.84
2022-11-03T15:49:03.619Z,9.86
2022-11-03T15:51:30.887Z,9.78
2022-11-03T15:53:59.161Z,9.85
2022-11-03T15:56:27.561Z,9.76
2022-11-03T15:58:54.828Z,9.83
2022-11-03T16:01:22.169Z,9.82
2022-11-03T16:03:49.447Z,9.74
2022-11-03T16:06:16.538Z,9.86
2022-11-03T16:08:43.568Z,9.86
2022-11-03T16:11:10.690Z,9.96
2022-11-03T16:13:37.762Z,9.93
2022-11-03T16:16:05.122Z,9.83
2022-11-03T16:18:32.188Z,9.87
2022-11-03T16:20:59.303Z,9.94
2022-11-03T16:23:26.467Z,9.82
2022-11-03T16:25:53.959Z,9.72
2022-11-03T16:28:21.061Z,9.84
2022-11-03T16:30:53.823Z,9.81
2022-11-03T16:33:22.122Z,9.72
2022-11-03T16:35:49.376Z,9.75
2022-11-03T16:38:16.608Z,9.78
2022-11-03T16:40:43.914Z,9.72
2022-11-03T16:43:11.834Z,9.84
2022-11-03T16:45:39.108Z,9.79
2022-11-03T16:48:07.363Z,9.82
2022-11-03T16:50:34.647Z,9.77
2022-11-03T16:53:02.050Z,9.78
2022-11-03T16:55:29.098Z,9.73
2022-11-03T16:57:56.260Z,9.77
2022-11-03T17:00:24.177Z,9.76
2022-11-03T17:02:51.488Z,9.67
2022-11-03T17:05:20.660Z,9.78
2022-11-03T17:07:53.227Z,9.71
2022-11-03T17:10:22.449Z,9.61
2022-11-03T17:12:50.134Z,9.43
2022-11-03T17:15:17.320Z,9.55
2022-11-03T17:17:44.589Z,9.51
2022-11-03T17:20:12.829Z,9.38
2022-11-03T17:22:39.887Z,9.58
2022-11-03T17:25:09.403Z,9.61
2022-11-03T17:27:53.651Z,9.71
2022-11-03T17:30:23.120Z,9.63
2022-11-03T17:32:51.955Z,9.59
2022-11-03T17:35:38.689Z,9.57
2022-11-03T17:38:13.665Z,9.56
2022-11-03T17:40:45.921Z,9.64
2022-11-03T17:43:20.133Z,9.65
2022-11-03T17:45:47.235Z,9.41
2022-11-03T17:48:14.729Z,9.61
2022-11-03T17:50:46.404Z,9.63
2022-11-03T17:53:23.776Z,9.59
2022-11-03T17:56:08.894Z,9.59
2022-11-03T17:58:45.881Z,9.56
2022-11-03T18:01:21.421Z,9.64
2022-11-03T18:03:48.660Z,9.70
2022-11-03T18:06:18.858Z,9.83
2022-11-03T18:08:46.935Z,9.92
2022-11-03T18:11:41.864Z,9.80
2022-11-03T18:14:09.112Z,9.78
2022-11-03T18:16:36.317Z,9.88
2022-11-03T18:19:04.075Z,9.75
2022-11-03T18:21:31.215Z,9.75
2022-11-03T18:23:58.756Z,9.79
2022-11-03T18:26:26.738Z,9.72
2022-11-03T18:28:54.121Z,9.76
2022-11-03T18:31:34.040Z,9.84
2022-11-03T18:34:04.431Z,9.80
2022-11-03T18:36:33.592Z,9.75
2022-11-03T18:39:02.112Z,9.83
2022-11-03T18:41:36.158Z,9.75
2022-11-03T18:44:12.154Z,9.74
2022-11-03T18:46:39.246Z,9.70
2022-11-03T18:49:06.330Z,9.72
2022-11-03T18:51:33.537Z,9.73
2022-11-03T18:54:00.950Z,9.77
2022-11-03T18:56:28.337Z,9.73
2022-11-03T18:58:57.145Z,9.82
2022-11-03T19:01:26.798Z,9.82
2022-11-03T19:03:54.430Z,9.80
2022-11-03T19:06:21.906Z,9.83
2022-11-03T19:08:53.520Z,9.84
2022-11-03T19:11:20.644Z,9.81
2022-11-03T19:13:48.230Z,9.83
2022-11-03T19:16:19.017Z,9.83
2022-11-03T19:18:46.293Z,9.93
2022-11-03T19:21:18.997Z,10.07
2022-11-03T19:23:48.122Z,9.85
2022-11-03T19:26:36.002Z,9.67
2022-11-03T19:29:08.931Z,9.60
2022-11-03T19:31:40.136Z,9.53
2022-11-03T19:34:12.612Z,9.48
2022-11-03T19:36:40.285Z,9.48
2022-11-03T19:39:14.948Z,9.40
2022-11-03T19:42:00.713Z,9.41
2022-11-03T19:44:27.853Z,9.33
2022-11-03T19:46:55.197Z,9.25
2022-11-03T19:49:22.304Z,9.24
2022-11-03T19:51:49.411Z,9.20
2022-11-03T19:54:19.736Z,9.15
2022-11-03T19:56:46.930Z,9.05
2022-11-03T19:59:15.463Z,9.06
2022-11-03T20:01:42.763Z,9.04
2022-11-03T20:04:10.353Z,9.00
2022-11-03T20:06:38.791Z,8.99
2022-11-03T20:09:08.422Z,9.03
2022-11-03T20:11:35.589Z,9.05
2022-11-03T20:14:03.973Z,8.89
2022-11-03T20:16:31.206Z,8.88
2022-11-03T20:18:58.301Z,8.84
2022-11-03T20:21:28.904Z,8.79
2022-11-03T20:24:00.162Z,8.78
2022-11-03T20:26:28.088Z,8.73
2022-11-03T20:28:56.665Z,8.71
2022-11-03T20:31:23.842Z,8.69
2022-11-03T20:33:50.973Z,8.64
2022-11-03T20:36:19.787Z,8.63
2022-11-03T20:38:51.509Z,8.61
2022-11-03T20:41:18.648Z,8.64
2022-11-03T20:43:47.801Z,8.62
2022-11-03T20:46:25.432Z,8.61
2022-11-03T20:48:55.288Z,8.61
2022-11-03T20:51:25.894Z,8.60
2022-11-03T20:53:54.190Z,8.55
2022-11-03T20:56:23.928Z,8.61
2022-11-03T20:58:51.433Z,8.66
2022-11-03T21:01:23.948Z,8.56
2022-11-03T21:03:59.266Z,8.62
2022-11-03T21:06:28.711Z,8.54
2022-11-03T21:08:55.930Z,8.61
2022-11-03T21:11:29.131Z,8.57
2022-11-03T21:14:01.025Z,8.62
2022-11-03T21:16:48.301Z,8.52
2022-11-03T21:19:39.405Z,8.50
2022-11-03T21:22:30.994Z,8.50
2022-11-03T21:25:02.585Z,8.51
2022-11-03T21:27:29.645Z,8.51
2022-11-03T21:30:00.307Z,8.48
2022-11-03T21:32:27.842Z,8.46
2022-11-03T21:34:54.996Z,8.50
2022-11-03T21:37:22.057Z,8.47
2022-11-03T21:39:49.103Z,8.51
2022-11-03T21:42:35.003Z,8.46
2022-11-03T21:45:02.192Z,8.43
2022-11-03T21:47:29.233Z,8.44
2022-11-03T21:49:56.323Z,8.36
2022-11-03T21:52:32.838Z,8.31
2022-11-03T21:55:01.637Z,8.33
2022-11-03T21:57:29.055Z,8.31
2022-11-03T21:59:59.762Z,8.30
2022-11-03T22:02:29.832Z,8.30
2022-11-03T22:04:58.227Z,8.27
2022-11-03T22:07:25.316Z,8.21
2022-11-03T22:09:52.384Z,8.32
2022-11-03T22:12:19.440Z,8.20
2022-11-03T22:15:04.994Z,8.20
2022-11-03T22:17:32.224Z,8.17
2022-11-03T22:20:17.899Z,8.18
2022-11-03T22:23:03.152Z,8.16
2022-11-03T22:25:48.420Z,8.23
2022-11-03T22:28:16.121Z,8.23
2022-11-03T22:31:02.000Z,8.15
2022-11-03T22:33:29.057Z,8.14
2022-11-03T22:36:20.290Z,8.07
2022-11-03T22:39:07.466Z,8.14
2022-11-03T22:41:53.535Z,8.08
2022-11-03T22:44:39.383Z,8.07
2022-11-03T22:47:08.305Z,8.12
2022-11-03T22:49:35.941Z,8.10
2022-11-03T22:52:04.071Z,8.13
2022-11-03T22:54:31.117Z,8.13
2022-11-03T22:56:58.175Z,8.17
2022-11-03T22:59:25.230Z,8.17
2022-11-03T23:01:52.424Z,8.24
2022-11-03T23:04:19.722Z,8.18
2022-11-03T23:06:46.790Z,8.16
2022-11-03T23:09:13.927Z,8.14
2022-11-03T23:11:41.006Z,8.10
2022-11-03T23:14:10.597Z,8.10
2022-11-03T23:16:42.918Z,8.04
2022-11-03T23:19:30.993Z,7.92
2022-11-03T23:21:58.308Z,7.88
2022-11-03T23:24:45.558Z,7.81
2022-11-03T23:27:13.813Z,7.86
2022-11-03T23:29:40.858Z,7.78
2022-11-03T23:32:08.449Z,7.75
2022-11-03T23:34:35.623Z,7.59
2022-11-03T23:37:03.194Z,7.68
2022-11-03T23:39:30.271Z,7.68
2022-11-03T23:41:57.437Z,7.57
2022-11-03T23:44:24.494Z,7.60
2022-11-03T23:47:09.981Z,7.55
2022-11-03T23:49:37.043Z,7.50
2022-11-03T23:52:04.089Z,7.60
2022-11-03T23:54:31.287Z,7.56
2022-11-03T23:57:16.503Z,7.58
